DNEN METAR and TAF | Updated Today

DNEN METAR

Akanu Ibiam International Airport

Observation time: 2:44 hr. ago

DNEN 051700Z 25010KT 9999 BKN015 36/20 Q1008 NOSIG

Need help? Read our tutorial on how to read METARs or read the parsed version below.

Akanu Ibiam International Airport (DNEN) METAR

  • Weather conditions on Sun, 05 Feb 2023 17:00:00 +0000 (2:44 hr. ago):
  • Present conditions: Dry
  • Clouds: Broken sky at 457 meters
  • Visibility: Greater than 10 km
  • Wind: 250 degrees at 10 knots
  • Temperature: 36 celsius
  • Dew point: 20 celsius
  • Pressure: 1008 millibars
  • Remarks: None


Useful to know...

DNEN TAF

Akanu Ibiam International Airport

TAF not found.

Airports near DNEN

No airports found within 100nm radius.